Bookmark and Share
Track history (hours):
 

Morton S Bouchard Jr

More information available from US FCC via Universal Licensing System and Coast Guard Vessel Documentation Center.

Last reported at 2014-Apr-16 01:29 UTC. Time now 2014-Apr-23 15:44 UTC.
Position N 29°56' W 090°21'.

Length 33 m.

Type: Tug. MMSI: 367006550.

NotesDate/timePositionNaut miles runAvg speedWind from/ knotsBaromVisibWave heightAir tempDewpointWater temp
2014-Apr-16 01:29N 29°56' W 090°21'5 5.1
2014-Apr-16 00:33N 29°60' W 090°25'0 0.0
2014-Apr-15 23:33N 29°60' W 090°25'0 0.0
2014-Apr-15 10:34N 29°60' W 090°25'0 0.0
2014-Apr-15 09:34N 29°60' W 090°25'0 0.0
2014-Apr-15 08:34N 29°60' W 090°25'0 0.0
2014-Apr-15 07:33N 29°60' W 090°25'0 0.0
2014-Apr-15 06:34N 29°60' W 090°25'0 0.0
2014-Apr-15 05:33N 29°60' W 090°25'0 0.0
2014-Apr-15 03:34N 29°60' W 090°25'0 0.0
2014-Apr-15 02:34N 29°60' W 090°25'0 0.0
2014-Apr-15 01:34N 29°60' W 090°25'0 0.0
2014-Apr-15 00:33N 29°60' W 090°25'0 0.0
2014-Apr-14 23:34N 29°60' W 090°25'0 0.0
2014-Apr-14 22:33N 29°60' W 090°25'0 0.0
2014-Apr-14 21:34N 29°60' W 090°25'0 0.0
2014-Apr-14 11:30N 29°60' W 090°25'1 1.4
2014-Apr-14 10:33N 29°59' W 090°24'5 4.6
2014-Apr-14 09:32N 29°57' W 090°19'3 0.3
2014-Apr-13 20:30N 29°58' W 090°16'0 0.0
2014-Apr-13 19:21N 29°58' W 090°16'0 0.0
2014-Apr-13 16:24N 29°58' W 090°16'0 0.0
2014-Apr-13 10:18N 29°58' W 090°16'3 4.0
2014-Apr-13 09:27N 29°56' W 090°13'  
2014-Apr-10 17:33N 27°48' W 082°29'7 6.9
2014-Apr-10 16:33N 27°54' W 082°26'1 0.8
2014-Apr-10 15:33N 27°55' W 082°27'2 1.6
2014-Apr-10 14:33N 27°57' W 082°27'0 0.0
2014-Apr-10 13:33N 27°57' W 082°27'0 0.0
2014-Apr-10 12:33N 27°57' W 082°27'0 0.0
2014-Apr-10 11:33N 27°57' W 082°27'0 0.0
2014-Apr-10 10:33N 27°57' W 082°27'0 0.0
2014-Apr-10 09:33N 27°57' W 082°27'0 0.0
2014-Apr-10 08:33N 27°57' W 082°27'0 0.0
2014-Apr-10 07:33N 27°57' W 082°27'0 0.0
2014-Apr-10 06:33N 27°57' W 082°27'0 0.0
2014-Apr-10 05:33N 27°57' W 082°27'0 0.0
2014-Apr-10 04:33N 27°57' W 082°27'0 0.0
2014-Apr-10 03:33N 27°57' W 082°27'0 0.0
2014-Apr-10 02:33N 27°57' W 082°27'0 0.0
2014-Apr-10 01:33N 27°57' W 082°27'0 0.0
2014-Apr-10 00:33N 27°57' W 082°27'0 0.0
2014-Apr-09 23:33N 27°57' W 082°27'0 0.0
2014-Apr-09 22:33N 27°57' W 082°27'0 0.0
2014-Apr-09 21:33N 27°57' W 082°27'0 0.0
2014-Apr-09 20:33N 27°57' W 082°27'2 1.5
2014-Apr-09 19:33N 27°55' W 082°27'0 0.2
2014-Apr-09 18:33N 27°55' W 082°27'2 2.4
2014-Apr-09 17:33N 27°53' W 082°26'6 6.1
2014-Apr-09 16:33N 27°47' W 082°30'7 6.5
2014-Apr-09 15:33N 27°42' W 082°34'27 0.5
2014-Apr-07 12:32N 27°36' W 083°03'6 6.1
2014-Apr-07 11:33N 27°37' W 083°10'20 6.3
2014-Apr-07 08:25N 27°42' W 083°31'12 6.5
2014-Apr-07 06:33N 27°44' W 083°45'7 6.5
2014-Apr-07 05:33N 27°46' W 083°52'  

Dump ship's entire track history

sailing weather and tide predictions

Morton S Bouchard Jr — WSE9678 — position and weather